AirNav   Everest Fuels
 
 1260 users online  

TX91 Madeira Airpark
Garland, Texas, USA

GOING TO GARLAND?


FAA INFORMATION EFFECTIVE 15 JULY 2021

Location

FAA Identifier: TX91
Lat/Long: 32-54-27.4460N 096-35-48.9730W
32-54.457433N 096-35.816217W
32.9076239,-96.5969369
(estimated)
Elevation: 450 ft. / 137 m (estimated)
Variation: 06E (1985)
From city: 2 miles E of GARLAND, TX
Time zone: UTC -5 (UTC -6 during Standard Time)
Zip code: 75040

Airport Operations

Airport use: Private use. Permission required prior to landing
Activation date: 08/1976
Control tower: no
ARTCC: FORT WORTH CENTER
FSS: FORT WORTH FLIGHT SERVICE STATION
Attendance: IREG
Wind indicator: no
Segmented circle: no

Airport Communications

WX AWOS-3 at F46 (8 nm E): 121.25 (972-772-6699)
WX AWOS-3 at HQZ (10 nm S): 118.175 (972-222-7631)
WX AWOS-3 at ADS (13 nm W): PHONE 972-386-4855
WX AWOS-3 at 49T (13 nm SW): 135.425 (214-670-1243)
WX ASOS at DAL (13 nm W): PHONE 214-353-1551
WX ASOS at TKI (16 nm N): PHONE 972-548-8525
WX ASOS at RBD (19 nm SW): PHONE 214-330-5317

Nearby radio navigation aids

VOR radial/distance  VOR name  Freq  Var
CVEr080/15.5COWBOY VOR/DME116.2006E
TTTr078/22.5MAVERICK VOR/DME113.1006E
FUZr082/29.4RANGER VORTAC115.7006E

 
NDB name  Hdg/Dist  Freq  Var  ID
MESQUITE327/6.824803EPQF .--. --.- ..-.
TRAVIS291/19.626006EAVZ .- ...- --..

Airport Services

Runway Information

Runway 5/23

Dimensions: 1100 x 100 ft. / 335 x 30 m
Surface: turf
RUNWAY 5  RUNWAY 23
Traffic pattern: leftleft
Obstructions: 18 ft. pline50 ft. pline, 660 ft. from runway

Airport Ownership and Management from official FAA records

Ownership: Privately-owned
Owner: MADEIRA AIR SUPPLY INC.
2826 E CENTERVILLE
GARLAND, TX 75040
Phone 214-494-0159
Manager: PAUL W. PENKAVA
2826 E CENTERVILLE
GARLAND, TX 75040
Phone 214-494-0159

Additional Remarks

FOR CD CTC REGIONAL APCH AT 972-615-2799.

Instrument Procedures

There are no published instrument procedures at TX91.

Some nearby airports with instrument procedures:

F46 - Ralph M Hall/Rockwall Municipal Airport (8 nm E)
KHQZ - Mesquite Metro Airport (10 nm S)
KADS - Addison Airport (13 nm W)
KDAL - Dallas Love Field Airport (13 nm W)
KTKI - McKinney National Airport (16 nm N)
KRBD - Dallas Executive Airport (19 nm SW)
7F3 - Caddo Mills Municipal Airport (19 nm NE)
 
Loc | Ops | Rwys | IFR | FBO | Links
Com | Nav | Svcs | Stats | Notes

City of Fort Worth
 
Area around TX91 (Madeira Airpark)
 
Road maps at: MapQuest Bing Google
 
Aerial photo
No photo
 
Sectional chart

 
Airport distance calculator
Flying to Madeira Airpark? Find the distance to fly.

From to TX91

Sunrise and sunset
Times for 30-Jul-2021
 Local
(UTC-5)
 Zulu
(UTC)
Morning civil twilight06:1211:12
Sunrise06:4011:40
Sunset20:2601:26
Evening civil twilight20:5301:53

Current date and time
Zulu (UTC)  30-Jul-2021 22:30:30
Local (UTC-5)  30-Jul-2021 17:30:30
 
METAR
KF46 
8nm E 
302215Z AUTO 14003KT 10SM SCT055 36/22 A3003 RMK AO2 T03550224
KHQZ 
10nm S 
302150Z 15007KT 10SM SCT050 36/22 A3002
KADS 
12nm W 
302147Z 11006KT 10SM SCT060 35/20 A3003
KDAL 
13nm W 
302153Z 09005KT 10SM SCT060TCU SCT250 36/21 A3001 RMK AO2 SLP153 TCU S-W T03610206
KTKI 
17nm N 
302153Z 11006KT 10SM CLR 36/20 A3003 RMK AO2 SLP159 T03610200
KRBD 
19nm SW 
302153Z 08007KT 10SM BKN060 36/21 A3002 RMK AO2 SLP154 T03610211
TAF
KDAL 
13nm W 
301730Z 3018/3118 18005KT P6SM SCT050 BKN250= TAF KAPC 301729Z 3018/3118 20010KT P6SM FEW150 FM302100 20015KT P6SM FEW150 FM310300 20010KT P6SM FEW150 FM310700 21007KT P6SM FEW007 FM311000 22005KT P6SM OVC005 FM311630 23007KT P6SM FEW008
NOTAMs
Click for the latest NOTAMs
NOTAMs are issued by the DoD/FAA and will open in a separate window not controlled by AirNav.

 

 
 

Would you like to see your business listed on this page?

 If your business provides an interesting product or service to pilots, flight crews, aircraft, or users of the Madeira Airpark, you should consider listing it here.  To start the listing process, click on the button below
 
Add a business
 

Other Pages about Madeira Airpark

Update a link
 
Copyright © AirNav, LLC. All rights reserved. Privacy Policy  Contact